sensor_id;sensor_type;location;lat;lon;timestamp;P1;durP1;ratioP1;P2;durP2;ratioP2
44694;SDS011;32845;59.422;17.930;2023-06-04T00:02:09;1.98;;;1.02;;
44694;SDS011;32845;59.422;17.930;2023-06-04T00:06:40;3.42;;;1.20;;
44694;SDS011;32845;59.422;17.930;2023-06-04T00:11:16;2.35;;;1.17;;
44694;SDS011;32845;59.422;17.930;2023-06-04T00:15:46;1.88;;;1.00;;
44694;SDS011;32845;59.422;17.930;2023-06-04T00:20:17;8.18;;;1.30;;
44694;SDS011;32845;59.422;17.930;2023-06-04T00:24:48;2.92;;;1.30;;
44694;SDS011;32845;59.422;17.930;2023-06-04T00:29:18;4.63;;;1.33;;
44694;SDS011;32845;59.422;17.930;2023-06-04T00:33:49;3.03;;;1.30;;
44694;SDS011;32845;59.422;17.930;2023-06-04T00:38:19;2.25;;;1.27;;
44694;SDS011;32845;59.422;17.930;2023-06-04T00:42:55;4.75;;;1.13;;
44694;SDS011;32845;59.422;17.930;2023-06-04T00:47:26;2.25;;;1.13;;
44694;SDS011;32845;59.422;17.930;2023-06-04T00:51:56;1.75;;;1.25;;
44694;SDS011;32845;59.422;17.930;2023-06-04T00:56:27;2.10;;;1.13;;
44694;SDS011;32845;59.422;17.930;2023-06-04T01:00:58;3.97;;;1.10;;
44694;SDS011;32845;59.422;17.930;2023-06-04T01:10:12;3.60;;;1.30;;
44694;SDS011;32845;59.422;17.930;2023-06-04T01:14:43;2.20;;;1.10;;
44694;SDS011;32845;59.422;17.930;2023-06-04T01:19:20;6.28;;;1.00;;
44694;SDS011;32845;59.422;17.930;2023-06-04T01:24:17;1.35;;;0.88;;
44694;SDS011;32845;59.422;17.930;2023-06-04T01:28:55;3.72;;;1.20;;
44694;SDS011;32845;59.422;17.930;2023-06-04T01:33:27;2.30;;;1.02;;
44694;SDS011;32845;59.422;17.930;2023-06-04T01:37:58;1.90;;;1.17;;
44694;SDS011;32845;59.422;17.930;2023-06-04T01:42:28;1.55;;;1.00;;
44694;SDS011;32845;59.422;17.930;2023-06-04T01:46:59;2.30;;;1.27;;
44694;SDS011;32845;59.422;17.930;2023-06-04T01:51:30;2.27;;;1.33;;
44694;SDS011;32845;59.422;17.930;2023-06-04T01:56:00;3.40;;;1.40;;
44694;SDS011;32845;59.422;17.930;2023-06-04T02:00:36;1.52;;;0.90;;
44694;SDS011;32845;59.422;17.930;2023-06-04T02:05:07;2.95;;;1.40;;
44694;SDS011;32845;59.422;17.930;2023-06-04T02:09:38;4.90;;;1.45;;
44694;SDS011;32845;59.422;17.930;2023-06-04T02:14:10;1.40;;;1.20;;
44694;SDS011;32845;59.422;17.930;2023-06-04T02:18:40;4.70;;;1.20;;
44694;SDS011;32845;59.422;17.930;2023-06-04T02:23:17;2.28;;;1.25;;
44694;SDS011;32845;59.422;17.930;2023-06-04T02:27:49;2.20;;;1.25;;
44694;SDS011;32845;59.422;17.930;2023-06-04T02:32:19;2.30;;;0.95;;
44694;SDS011;32845;59.422;17.930;2023-06-04T02:36:50;2.40;;;0.70;;
44694;SDS011;32845;59.422;17.930;2023-06-04T02:41:21;1.33;;;0.63;;
44694;SDS011;32845;59.422;17.930;2023-06-04T02:45:53;0.30;;;0.30;;
44694;SDS011;32845;59.422;17.930;2023-06-04T02:50:34;3.45;;;0.57;;
44694;SDS011;32845;59.422;17.930;2023-06-04T02:55:05;1.00;;;0.50;;
44694;SDS011;32845;59.422;17.930;2023-06-04T02:59:37;0.43;;;0.40;;
44694;SDS011;32845;59.422;17.930;2023-06-04T03:04:07;0.77;;;0.40;;
44694;SDS011;32845;59.422;17.930;2023-06-04T03:08:40;1.33;;;0.60;;
44694;SDS011;32845;59.422;17.930;2023-06-04T03:13:16;2.15;;;0.60;;
44694;SDS011;32845;59.422;17.930;2023-06-04T03:17:46;0.50;;;0.40;;
44694;SDS011;32845;59.422;17.930;2023-06-04T03:22:17;0.30;;;0.30;;
44694;SDS011;32845;59.422;17.930;2023-06-04T03:26:48;1.88;;;0.50;;
44694;SDS011;32845;59.422;17.930;2023-06-04T03:31:18;1.20;;;0.60;;
44694;SDS011;32845;59.422;17.930;2023-06-04T03:35:52;0.77;;;0.57;;
44694;SDS011;32845;59.422;17.930;2023-06-04T03:40:28;1.40;;;0.63;;
44694;SDS011;32845;59.422;17.930;2023-06-04T03:44:58;3.47;;;0.60;;
44694;SDS011;32845;59.422;17.930;2023-06-04T03:49:29;1.15;;;0.43;;
44694;SDS011;32845;59.422;17.930;2023-06-04T03:54:00;0.45;;;0.30;;
44694;SDS011;32845;59.422;17.930;2023-06-04T03:58:31;3.13;;;0.40;;
44694;SDS011;32845;59.422;17.930;2023-06-04T04:03:04;2.17;;;0.60;;
44694;SDS011;32845;59.422;17.930;2023-06-04T04:07:37;3.50;;;0.57;;
44694;SDS011;32845;59.422;17.930;2023-06-04T04:12:08;1.33;;;0.40;;
44694;SDS011;32845;59.422;17.930;2023-06-04T04:16:39;1.50;;;0.50;;
44694;SDS011;32845;59.422;17.930;2023-06-04T04:21:10;4.53;;;0.43;;
44694;SDS011;32845;59.422;17.930;2023-06-04T04:25:40;3.22;;;0.50;;
44694;SDS011;32845;59.422;17.930;2023-06-04T04:30:11;0.90;;;0.47;;
44694;SDS011;32845;59.422;17.930;2023-06-04T04:34:50;0.98;;;0.40;;
44694;SDS011;32845;59.422;17.930;2023-06-04T04:39:22;0.57;;;0.30;;
44694;SDS011;32845;59.422;17.930;2023-06-04T04:44:02;0.63;;;0.20;;
44694;SDS011;32845;59.422;17.930;2023-06-04T04:48:34;2.88;;;0.40;;
44694;SDS011;32845;59.422;17.930;2023-06-04T04:53:05;0.50;;;0.40;;
44694;SDS011;32845;59.422;17.930;2023-06-04T04:57:35;0.43;;;0.10;;
44694;SDS011;32845;59.422;17.930;2023-06-04T05:02:06;0.60;;;0.25;;
44694;SDS011;32845;59.422;17.930;2023-06-04T05:06:37;0.73;;;0.30;;
44694;SDS011;32845;59.422;17.930;2023-06-04T05:11:07;0.30;;;0.20;;
44694;SDS011;32845;59.422;17.930;2023-06-04T05:15:38;0.13;;;0.13;;
44694;SDS011;32845;59.422;17.930;2023-06-04T05:20:09;2.70;;;0.30;;
44694;SDS011;32845;59.422;17.930;2023-06-04T05:24:42;0.13;;;0.13;;
44694;SDS011;32845;59.422;17.930;2023-06-04T05:29:12;0.65;;;0.10;;
44694;SDS011;32845;59.422;17.930;2023-06-04T05:33:43;1.23;;;0.20;;
44694;SDS011;32845;59.422;17.930;2023-06-04T05:38:14;0.10;;;0.10;;
44694;SDS011;32845;59.422;17.930;2023-06-04T05:42:55;0.82;;;0.10;;
44694;SDS011;32845;59.422;17.930;2023-06-04T05:47:27;0.22;;;0.20;;
44694;SDS011;32845;59.422;17.930;2023-06-04T05:52:04;1.95;;;0.20;;
44694;SDS011;32845;59.422;17.930;2023-06-04T05:56:35;0.17;;;0.15;;
44694;SDS011;32845;59.422;17.930;2023-06-04T06:01:05;0.43;;;0.20;;
44694;SDS011;32845;59.422;17.930;2023-06-04T06:05:36;0.50;;;0.20;;
44694;SDS011;32845;59.422;17.930;2023-06-04T06:10:07;0.10;;;0.10;;
44694;SDS011;32845;59.422;17.930;2023-06-04T06:14:38;0.25;;;0.10;;
44694;SDS011;32845;59.422;17.930;2023-06-04T06:19:08;0.80;;;0.43;;
44694;SDS011;32845;59.422;17.930;2023-06-04T06:23:41;0.20;;;0.20;;
44694;SDS011;32845;59.422;17.930;2023-06-04T06:28:11;3.40;;;0.28;;
44694;SDS011;32845;59.422;17.930;2023-06-04T06:32:42;7.32;;;0.30;;
44694;SDS011;32845;59.422;17.930;2023-06-04T06:37:12;0.10;;;0.10;;
44694;SDS011;32845;59.422;17.930;2023-06-04T06:41:43;0.25;;;0.17;;
44694;SDS011;32845;59.422;17.930;2023-06-04T06:46:15;0.75;;;0.30;;
44694;SDS011;32845;59.422;17.930;2023-06-04T06:50:50;2.10;;;0.38;;
44694;SDS011;32845;59.422;17.930;2023-06-04T06:55:21;0.30;;;0.20;;
44694;SDS011;32845;59.422;17.930;2023-06-04T06:59:51;0.15;;;0.08;;
44694;SDS011;32845;59.422;17.930;2023-06-04T07:04:23;2.60;;;0.15;;
44694;SDS011;32845;59.422;17.930;2023-06-04T07:08:54;0.65;;;0.20;;
44694;SDS011;32845;59.422;17.930;2023-06-04T07:13:25;0.10;;;0.03;;
44694;SDS011;32845;59.422;17.930;2023-06-04T07:17:55;0.13;;;0.13;;
44694;SDS011;32845;59.422;17.930;2023-06-04T07:22:26;0.05;;;0.05;;
44694;SDS011;32845;59.422;17.930;2023-06-04T07:26:56;0.60;;;0.20;;
44694;SDS011;32845;59.422;17.930;2023-06-04T07:31:27;1.00;;;0.08;;
44694;SDS011;32845;59.422;17.930;2023-06-04T07:35:58;2.30;;;0.10;;
44694;SDS011;32845;59.422;17.930;2023-06-04T07:40:29;0.10;;;0.10;;
44694;SDS011;32845;59.422;17.930;2023-06-04T07:44:59;0.20;;;0.13;;
44694;SDS011;32845;59.422;17.930;2023-06-04T07:49:31;0.15;;;0.15;;
44694;SDS011;32845;59.422;17.930;2023-06-04T07:54:02;0.08;;;0.05;;
44694;SDS011;32845;59.422;17.930;2023-06-04T07:58:33;1.77;;;0.15;;
44694;SDS011;32845;59.422;17.930;2023-06-04T08:03:04;2.65;;;0.30;;
44694;SDS011;32845;59.422;17.930;2023-06-04T08:07:34;0.57;;;0.20;;
44694;SDS011;32845;59.422;17.930;2023-06-04T08:12:05;0.55;;;0.20;;
44694;SDS011;32845;59.422;17.930;2023-06-04T08:16:36;0.90;;;0.10;;
44694;SDS011;32845;59.422;17.930;2023-06-04T08:21:10;2.47;;;0.20;;
44694;SDS011;32845;59.422;17.930;2023-06-04T08:25:41;0.50;;;0.15;;
44694;SDS011;32845;59.422;17.930;2023-06-04T08:30:12;0.20;;;0.17;;
44694;SDS011;32845;59.422;17.930;2023-06-04T08:34:42;0.40;;;0.20;;
44694;SDS011;32845;59.422;17.930;2023-06-04T08:39:13;0.60;;;0.20;;
44694;SDS011;32845;59.422;17.930;2023-06-04T08:43:44;0.45;;;0.30;;
44694;SDS011;32845;59.422;17.930;2023-06-04T08:48:15;0.52;;;0.20;;
44694;SDS011;32845;59.422;17.930;2023-06-04T08:52:52;0.93;;;0.28;;
44694;SDS011;32845;59.422;17.930;2023-06-04T08:57:27;0.10;;;0.10;;
44694;SDS011;32845;59.422;17.930;2023-06-04T09:02:00;0.30;;;0.20;;
44694;SDS011;32845;59.422;17.930;2023-06-04T09:06:32;2.05;;;0.10;;
44694;SDS011;32845;59.422;17.930;2023-06-04T09:11:04;0.52;;;0.25;;
44694;SDS011;32845;59.422;17.930;2023-06-04T09:15:37;0.30;;;0.20;;
44694;SDS011;32845;59.422;17.930;2023-06-04T09:20:17;0.65;;;0.20;;
44694;SDS011;32845;59.422;17.930;2023-06-04T09:24:51;0.30;;;0.30;;
44694;SDS011;32845;59.422;17.930;2023-06-04T09:29:24;0.20;;;0.20;;
44694;SDS011;32845;59.422;17.930;2023-06-04T09:33:54;0.30;;;0.20;;
44694;SDS011;32845;59.422;17.930;2023-06-04T09:38:37;0.15;;;0.15;;
44694;SDS011;32845;59.422;17.930;2023-06-04T09:43:08;2.65;;;0.10;;
44694;SDS011;32845;59.422;17.930;2023-06-04T09:47:41;0.52;;;0.30;;
44694;SDS011;32845;59.422;17.930;2023-06-04T09:52:13;0.55;;;0.20;;
44694;SDS011;32845;59.422;17.930;2023-06-04T09:56:44;2.45;;;0.20;;
44694;SDS011;32845;59.422;17.930;2023-06-04T10:01:14;0.73;;;0.20;;
44694;SDS011;32845;59.422;17.930;2023-06-04T10:05:45;0.35;;;0.20;;
44694;SDS011;32845;59.422;17.930;2023-06-04T10:10:18;0.28;;;0.20;;
44694;SDS011;32845;59.422;17.930;2023-06-04T10:14:52;2.50;;;0.30;;
44694;SDS011;32845;59.422;17.930;2023-06-04T10:19:24;2.28;;;0.40;;
44694;SDS011;32845;59.422;17.930;2023-06-04T10:23:56;2.08;;;0.35;;
44694;SDS011;32845;59.422;17.930;2023-06-04T10:28:27;0.40;;;0.25;;
44694;SDS011;32845;59.422;17.930;2023-06-04T10:32:58;1.30;;;0.20;;
44694;SDS011;32845;59.422;17.930;2023-06-04T10:37:29;0.30;;;0.30;;
44694;SDS011;32845;59.422;17.930;2023-06-04T10:42:04;0.30;;;0.30;;
44694;SDS011;32845;59.422;17.930;2023-06-04T10:46:39;0.35;;;0.30;;
44694;SDS011;32845;59.422;17.930;2023-06-04T10:51:11;0.28;;;0.28;;
44694;SDS011;32845;59.422;17.930;2023-06-04T10:55:45;0.77;;;0.30;;
44694;SDS011;32845;59.422;17.930;2023-06-04T11:00:16;0.43;;;0.30;;
44694;SDS011;32845;59.422;17.930;2023-06-04T11:04:57;0.70;;;0.25;;
44694;SDS011;32845;59.422;17.930;2023-06-04T11:09:31;1.80;;;0.30;;
44694;SDS011;32845;59.422;17.930;2023-06-04T11:14:10;0.68;;;0.40;;
44694;SDS011;32845;59.422;17.930;2023-06-04T11:18:55;3.83;;;0.20;;
44694;SDS011;32845;59.422;17.930;2023-06-04T11:23:26;0.60;;;0.30;;
44694;SDS011;32845;59.422;17.930;2023-06-04T11:27:57;3.83;;;0.40;;
44694;SDS011;32845;59.422;17.930;2023-06-04T11:32:33;0.60;;;0.20;;
44694;SDS011;32845;59.422;17.930;2023-06-04T11:37:09;2.53;;;0.25;;
44694;SDS011;32845;59.422;17.930;2023-06-04T11:41:40;0.60;;;0.30;;
44694;SDS011;32845;59.422;17.930;2023-06-04T11:46:12;0.47;;;0.30;;
44694;SDS011;32845;59.422;17.930;2023-06-04T11:50:43;0.50;;;0.20;;
44694;SDS011;32845;59.422;17.930;2023-06-04T11:55:14;1.60;;;0.30;;
44694;SDS011;32845;59.422;17.930;2023-06-04T11:59:48;0.40;;;0.30;;
44694;SDS011;32845;59.422;17.930;2023-06-04T12:04:19;0.20;;;0.20;;
44694;SDS011;32845;59.422;17.930;2023-06-04T12:08:53;1.90;;;0.28;;
44694;SDS011;32845;59.422;17.930;2023-06-04T12:13:24;0.60;;;0.28;;
44694;SDS011;32845;59.422;17.930;2023-06-04T12:17:55;0.90;;;0.30;;
44694;SDS011;32845;59.422;17.930;2023-06-04T12:22:26;0.32;;;0.20;;
44694;SDS011;32845;59.422;17.930;2023-06-04T12:27:06;0.65;;;0.45;;
44694;SDS011;32845;59.422;17.930;2023-06-04T12:31:39;0.20;;;0.20;;
44694;SDS011;32845;59.422;17.930;2023-06-04T12:36:11;0.10;;;0.10;;
44694;SDS011;32845;59.422;17.930;2023-06-04T12:40:41;0.45;;;0.30;;
44694;SDS011;32845;59.422;17.930;2023-06-04T12:45:12;11.20;;;0.47;;
44694;SDS011;32845;59.422;17.930;2023-06-04T12:49:44;0.40;;;0.30;;
44694;SDS011;32845;59.422;17.930;2023-06-04T12:54:15;0.77;;;0.40;;
44694;SDS011;32845;59.422;17.930;2023-06-04T12:58:45;0.80;;;0.40;;
44694;SDS011;32845;59.422;17.930;2023-06-04T13:03:16;0.40;;;0.20;;
44694;SDS011;32845;59.422;17.930;2023-06-04T13:07:47;0.38;;;0.30;;
44694;SDS011;32845;59.422;17.930;2023-06-04T13:12:17;0.80;;;0.38;;
44694;SDS011;32845;59.422;17.930;2023-06-04T13:16:48;0.77;;;0.40;;
44694;SDS011;32845;59.422;17.930;2023-06-04T13:21:26;0.30;;;0.30;;
44694;SDS011;32845;59.422;17.930;2023-06-04T13:25:56;0.75;;;0.30;;
44694;SDS011;32845;59.422;17.930;2023-06-04T13:30:37;0.50;;;0.20;;
44694;SDS011;32845;59.422;17.930;2023-06-04T13:35:08;1.00;;;0.43;;
44694;SDS011;32845;59.422;17.930;2023-06-04T13:39:39;1.02;;;0.30;;
44694;SDS011;32845;59.422;17.930;2023-06-04T13:44:09;1.05;;;0.50;;
44694;SDS011;32845;59.422;17.930;2023-06-04T13:48:40;1.20;;;0.25;;
44694;SDS011;32845;59.422;17.930;2023-06-04T13:53:10;1.40;;;0.22;;
44694;SDS011;32845;59.422;17.930;2023-06-04T13:57:43;0.35;;;0.20;;
44694;SDS011;32845;59.422;17.930;2023-06-04T14:02:13;0.40;;;0.30;;
44694;SDS011;32845;59.422;17.930;2023-06-04T14:06:45;4.25;;;0.50;;
44694;SDS011;32845;59.422;17.930;2023-06-04T14:11:22;0.75;;;0.40;;
44694;SDS011;32845;59.422;17.930;2023-06-04T14:15:52;0.70;;;0.28;;
44694;SDS011;32845;59.422;17.930;2023-06-04T14:20:23;3.20;;;0.43;;
44694;SDS011;32845;59.422;17.930;2023-06-04T14:24:54;2.50;;;0.60;;
44694;SDS011;32845;59.422;17.930;2023-06-04T14:29:24;0.40;;;0.30;;
44694;SDS011;32845;59.422;17.930;2023-06-04T14:33:55;2.38;;;0.30;;
44694;SDS011;32845;59.422;17.930;2023-06-04T14:38:25;1.02;;;0.80;;
44694;SDS011;32845;59.422;17.930;2023-06-04T14:42:56;0.70;;;0.30;;
44694;SDS011;32845;59.422;17.930;2023-06-04T14:47:27;0.65;;;0.55;;
44694;SDS011;32845;59.422;17.930;2023-06-04T14:51:58;0.35;;;0.20;;
44694;SDS011;32845;59.422;17.930;2023-06-04T14:56:28;0.25;;;0.20;;
44694;SDS011;32845;59.422;17.930;2023-06-04T15:01:00;0.82;;;0.47;;
44694;SDS011;32845;59.422;17.930;2023-06-04T15:05:33;1.10;;;0.55;;
44694;SDS011;32845;59.422;17.930;2023-06-04T15:10:04;0.82;;;0.30;;
44694;SDS011;32845;59.422;17.930;2023-06-04T15:14:36;3.22;;;0.50;;
44694;SDS011;32845;59.422;17.930;2023-06-04T15:19:08;0.15;;;0.15;;
44694;SDS011;32845;59.422;17.930;2023-06-04T15:23:40;0.55;;;0.30;;
44694;SDS011;32845;59.422;17.930;2023-06-04T15:28:11;0.73;;;0.22;;
44694;SDS011;32845;59.422;17.930;2023-06-04T15:32:41;2.80;;;0.20;;
44694;SDS011;32845;59.422;17.930;2023-06-04T15:37:12;0.35;;;0.35;;
44694;SDS011;32845;59.422;17.930;2023-06-04T15:41:42;0.70;;;0.30;;
44694;SDS011;32845;59.422;17.930;2023-06-04T15:46:13;1.83;;;0.15;;
44694;SDS011;32845;59.422;17.930;2023-06-04T15:50:49;0.20;;;0.20;;
44694;SDS011;32845;59.422;17.930;2023-06-04T15:55:19;0.40;;;0.30;;
44694;SDS011;32845;59.422;17.930;2023-06-04T15:59:51;0.95;;;0.43;;
44694;SDS011;32845;59.422;17.930;2023-06-04T16:04:21;4.53;;;0.50;;
44694;SDS011;32845;59.422;17.930;2023-06-04T16:08:52;0.52;;;0.43;;
44694;SDS011;32845;59.422;17.930;2023-06-04T16:13:22;2.78;;;0.40;;
44694;SDS011;32845;59.422;17.930;2023-06-04T16:17:54;0.40;;;0.40;;
44694;SDS011;32845;59.422;17.930;2023-06-04T16:22:35;0.20;;;0.20;;
44694;SDS011;32845;59.422;17.930;2023-06-04T16:27:05;0.17;;;0.17;;
44694;SDS011;32845;59.422;17.930;2023-06-04T16:31:36;1.35;;;0.47;;
44694;SDS011;32845;59.422;17.930;2023-06-04T16:36:06;2.30;;;0.50;;
44694;SDS011;32845;59.422;17.930;2023-06-04T16:40:37;0.40;;;0.30;;
44694;SDS011;32845;59.422;17.930;2023-06-04T16:45:08;2.67;;;0.55;;
44694;SDS011;32845;59.422;17.930;2023-06-04T16:49:39;0.73;;;0.30;;
44694;SDS011;32845;59.422;17.930;2023-06-04T16:54:09;0.65;;;0.40;;
44694;SDS011;32845;59.422;17.930;2023-06-04T16:58:40;0.45;;;0.20;;
44694;SDS011;32845;59.422;17.930;2023-06-04T17:03:11;0.77;;;0.38;;
44694;SDS011;32845;59.422;17.930;2023-06-04T17:07:41;0.40;;;0.25;;
44694;SDS011;32845;59.422;17.930;2023-06-04T17:12:12;0.70;;;0.30;;
44694;SDS011;32845;59.422;17.930;2023-06-04T17:16:42;0.45;;;0.20;;
44694;SDS011;32845;59.422;17.930;2023-06-04T17:21:13;0.20;;;0.20;;
44694;SDS011;32845;59.422;17.930;2023-06-04T17:25:47;1.92;;;0.40;;
44694;SDS011;32845;59.422;17.930;2023-06-04T17:30:18;0.63;;;0.30;;
44694;SDS011;32845;59.422;17.930;2023-06-04T17:34:54;2.05;;;0.30;;
44694;SDS011;32845;59.422;17.930;2023-06-04T17:39:24;0.50;;;0.30;;
44694;SDS011;32845;59.422;17.930;2023-06-04T17:43:55;3.25;;;0.40;;
44694;SDS011;32845;59.422;17.930;2023-06-04T17:48:26;2.47;;;0.30;;
44694;SDS011;32845;59.422;17.930;2023-06-04T17:52:56;6.43;;;0.60;;
44694;SDS011;32845;59.422;17.930;2023-06-04T17:57:28;1.35;;;0.40;;
44694;SDS011;32845;59.422;17.930;2023-06-04T18:02:00;2.90;;;0.65;;
44694;SDS011;32845;59.422;17.930;2023-06-04T18:06:30;2.65;;;0.77;;
44694;SDS011;32845;59.422;17.930;2023-06-04T18:11:01;1.40;;;0.50;;
44694;SDS011;32845;59.422;17.930;2023-06-04T18:15:31;1.52;;;0.30;;
44694;SDS011;32845;59.422;17.930;2023-06-04T18:20:02;2.15;;;0.50;;
44694;SDS011;32845;59.422;17.930;2023-06-04T18:24:33;3.15;;;0.50;;
44694;SDS011;32845;59.422;17.930;2023-06-04T18:29:06;2.85;;;0.40;;
44694;SDS011;32845;59.422;17.930;2023-06-04T18:33:36;1.02;;;0.45;;
44694;SDS011;32845;59.422;17.930;2023-06-04T18:38:08;6.60;;;0.40;;
44694;SDS011;32845;59.422;17.930;2023-06-04T18:42:38;1.77;;;0.50;;
44694;SDS011;32845;59.422;17.930;2023-06-04T18:47:09;6.97;;;0.80;;
44694;SDS011;32845;59.422;17.930;2023-06-04T18:51:41;1.30;;;0.45;;
44694;SDS011;32845;59.422;17.930;2023-06-04T18:56:12;3.10;;;0.68;;
44694;SDS011;32845;59.422;17.930;2023-06-04T19:00:43;6.85;;;0.60;;
44694;SDS011;32845;59.422;17.930;2023-06-04T19:05:15;1.48;;;0.70;;
44694;SDS011;32845;59.422;17.930;2023-06-04T19:09:46;0.57;;;0.50;;
44694;SDS011;32845;59.422;17.930;2023-06-04T19:14:16;4.18;;;0.50;;
44694;SDS011;32845;59.422;17.930;2023-06-04T19:18:47;2.92;;;0.50;;
44694;SDS011;32845;59.422;17.930;2023-06-04T19:23:18;1.25;;;0.40;;
44694;SDS011;32845;59.422;17.930;2023-06-04T19:27:49;2.08;;;0.50;;
44694;SDS011;32845;59.422;17.930;2023-06-04T19:32:23;2.33;;;0.40;;
44694;SDS011;32845;59.422;17.930;2023-06-04T19:36:57;5.22;;;0.47;;
44694;SDS011;32845;59.422;17.930;2023-06-04T19:41:38;2.30;;;0.65;;
44694;SDS011;32845;59.422;17.930;2023-06-04T19:46:08;1.45;;;0.60;;
44694;SDS011;32845;59.422;17.930;2023-06-04T19:50:44;4.28;;;0.40;;
44694;SDS011;32845;59.422;17.930;2023-06-04T19:55:15;0.50;;;0.40;;
44694;SDS011;32845;59.422;17.930;2023-06-04T19:59:52;0.30;;;0.30;;
44694;SDS011;32845;59.422;17.930;2023-06-04T20:04:23;3.15;;;0.88;;
44694;SDS011;32845;59.422;17.930;2023-06-04T20:08:53;1.45;;;0.35;;
44694;SDS011;32845;59.422;17.930;2023-06-04T20:13:24;6.82;;;0.68;;
44694;SDS011;32845;59.422;17.930;2023-06-04T20:17:54;0.98;;;0.43;;
44694;SDS011;32845;59.422;17.930;2023-06-04T20:22:30;1.15;;;0.40;;
44694;SDS011;32845;59.422;17.930;2023-06-04T20:27:02;0.98;;;0.40;;
44694;SDS011;32845;59.422;17.930;2023-06-04T20:31:33;0.88;;;0.60;;
44694;SDS011;32845;59.422;17.930;2023-06-04T20:36:04;1.02;;;0.40;;
44694;SDS011;32845;59.422;17.930;2023-06-04T20:40:34;0.98;;;0.30;;
44694;SDS011;32845;59.422;17.930;2023-06-04T20:45:06;0.93;;;0.40;;
44694;SDS011;32845;59.422;17.930;2023-06-04T20:49:37;3.35;;;0.50;;
44694;SDS011;32845;59.422;17.930;2023-06-04T20:54:07;3.28;;;0.60;;
44694;SDS011;32845;59.422;17.930;2023-06-04T20:58:38;1.20;;;0.60;;
44694;SDS011;32845;59.422;17.930;2023-06-04T21:03:09;0.95;;;0.50;;
44694;SDS011;32845;59.422;17.930;2023-06-04T21:07:39;6.95;;;0.70;;
44694;SDS011;32845;59.422;17.930;2023-06-04T21:12:20;0.70;;;0.47;;
44694;SDS011;32845;59.422;17.930;2023-06-04T21:16:51;2.05;;;0.40;;
44694;SDS011;32845;59.422;17.930;2023-06-04T21:21:33;1.05;;;0.52;;
44694;SDS011;32845;59.422;17.930;2023-06-04T21:26:04;0.75;;;0.25;;
44694;SDS011;32845;59.422;17.930;2023-06-04T21:30:35;3.28;;;0.40;;
44694;SDS011;32845;59.422;17.930;2023-06-04T21:35:07;2.38;;;0.70;;
44694;SDS011;32845;59.422;17.930;2023-06-04T21:39:38;1.38;;;0.50;;
44694;SDS011;32845;59.422;17.930;2023-06-04T21:44:09;2.05;;;0.60;;
44694;SDS011;32845;59.422;17.930;2023-06-04T21:48:39;2.17;;;0.45;;
44694;SDS011;32845;59.422;17.930;2023-06-04T21:53:13;1.30;;;0.40;;
44694;SDS011;32845;59.422;17.930;2023-06-04T21:57:44;1.60;;;0.40;;
44694;SDS011;32845;59.422;17.930;2023-06-04T22:02:15;1.65;;;0.43;;
44694;SDS011;32845;59.422;17.930;2023-06-04T22:06:46;1.92;;;0.40;;
44694;SDS011;32845;59.422;17.930;2023-06-04T22:11:16;0.50;;;0.30;;
44694;SDS011;32845;59.422;17.930;2023-06-04T22:15:47;0.50;;;0.38;;
44694;SDS011;32845;59.422;17.930;2023-06-04T22:20:18;4.90;;;0.35;;
44694;SDS011;32845;59.422;17.930;2023-06-04T22:24:48;2.40;;;0.60;;
44694;SDS011;32845;59.422;17.930;2023-06-04T22:29:19;0.95;;;0.32;;
44694;SDS011;32845;59.422;17.930;2023-06-04T22:33:55;0.93;;;0.30;;
44694;SDS011;32845;59.422;17.930;2023-06-04T22:38:25;2.97;;;0.50;;
44694;SDS011;32845;59.422;17.930;2023-06-04T22:42:56;0.47;;;0.35;;
44694;SDS011;32845;59.422;17.930;2023-06-04T22:47:26;1.65;;;0.40;;
44694;SDS011;32845;59.422;17.930;2023-06-04T22:51:57;2.25;;;0.45;;
44694;SDS011;32845;59.422;17.930;2023-06-04T22:56:28;2.55;;;0.50;;
44694;SDS011;32845;59.422;17.930;2023-06-04T23:01:03;1.67;;;0.40;;
44694;SDS011;32845;59.422;17.930;2023-06-04T23:05:34;0.90;;;0.50;;
44694;SDS011;32845;59.422;17.930;2023-06-04T23:10:05;0.40;;;0.40;;
44694;SDS011;32845;59.422;17.930;2023-06-04T23:14:36;4.57;;;0.30;;
44694;SDS011;32845;59.422;17.930;2023-06-04T23:19:07;2.92;;;0.40;;
44694;SDS011;32845;59.422;17.930;2023-06-04T23:23:39;1.00;;;0.40;;
44694;SDS011;32845;59.422;17.930;2023-06-04T23:28:10;1.55;;;0.65;;
44694;SDS011;32845;59.422;17.930;2023-06-04T23:32:46;1.85;;;0.47;;
44694;SDS011;32845;59.422;17.930;2023-06-04T23:37:16;1.48;;;0.35;;
44694;SDS011;32845;59.422;17.930;2023-06-04T23:41:52;1.40;;;0.32;;
44694;SDS011;32845;59.422;17.930;2023-06-04T23:46:22;3.13;;;0.50;;
44694;SDS011;32845;59.422;17.930;2023-06-04T23:50:58;2.08;;;0.68;;
44694;SDS011;32845;59.422;17.930;2023-06-04T23:55:29;2.05;;;0.55;;
44694;SDS011;32845;59.422;17.930;2023-06-04T23:59:59;3.72;;;0.57;;
